createdAt,value
2022-08-16T07:04:49.062Z,26.40
2022-08-16T07:07:40.225Z,25.90
2022-08-16T09:40:58.747Z,31.80
2022-08-16T09:46:49.669Z,30.40
2022-08-16T09:49:37.514Z,30.00
2022-08-16T09:52:28.707Z,30.10
2022-08-16T09:55:16.168Z,31.00
2022-08-16T09:58:04.397Z,31.10
2022-08-16T10:00:53.965Z,31.20
2022-08-16T10:04:02.179Z,31.20
2022-08-16T10:06:50.768Z,31.70
2022-08-16T10:09:53.794Z,32.10
2022-08-16T10:13:02.156Z,32.30
2022-08-16T10:15:55.871Z,32.10
2022-08-16T10:19:07.195Z,32.40
2022-08-16T10:21:56.345Z,32.30
2022-08-16T10:24:56.081Z,31.50
2022-08-16T10:27:53.347Z,31.70
2022-08-16T10:30:44.750Z,30.90
2022-08-16T10:33:34.090Z,29.90
2022-08-16T10:36:38.937Z,30.40
2022-08-16T10:39:27.172Z,30.40
2022-08-16T10:42:29.519Z,29.90
2022-08-16T10:45:18.105Z,30.40
2022-08-16T10:48:27.144Z,31.00
2022-08-16T10:51:15.601Z,31.20
2022-08-16T10:54:05.025Z,31.70
2022-08-16T10:56:56.801Z,31.70
2022-08-16T10:59:54.438Z,32.10
2022-08-16T11:02:58.100Z,31.90
2022-08-16T11:06:06.533Z,31.00
2022-08-16T11:12:13.306Z,31.50
2022-08-16T11:15:18.140Z,32.30
2022-08-16T11:19:03.840Z,32.30
2022-08-16T11:21:29.162Z,32.30
2022-08-16T11:24:39.206Z,32.70
2022-08-16T11:27:35.515Z,32.80
2022-08-16T11:30:24.364Z,32.80
2022-08-16T11:33:51.847Z,32.80
2022-08-16T11:36:32.497Z,32.90
2022-08-16T11:39:19.505Z,32.80
2022-08-16T11:42:07.665Z,32.30
2022-08-16T11:45:14.756Z,32.10
2022-08-16T11:48:06.257Z,31.50
2022-08-16T11:50:54.371Z,31.90
2022-08-16T11:53:42.017Z,32.00
2022-08-16T11:56:52.000Z,32.40
2022-08-16T11:59:39.800Z,32.70
2022-08-16T12:02:31.190Z,32.80
2022-08-16T12:05:20.258Z,32.80
2022-08-16T12:08:07.899Z,32.90
2022-08-16T12:10:59.485Z,33.20
2022-08-16T12:13:50.161Z,33.00
2022-08-16T12:16:38.567Z,32.80
2022-08-16T12:19:33.472Z,33.10
2022-08-16T12:22:21.178Z,33.20
2022-08-16T12:25:14.017Z,33.20
2022-08-16T12:28:04.055Z,33.20
2022-08-16T12:30:53.211Z,33.30
2022-08-16T12:33:44.871Z,33.60
2022-08-16T12:36:32.016Z,33.20
2022-08-16T12:39:21.176Z,33.30
2022-08-16T12:42:12.599Z,33.40
2022-08-16T12:45:07.167Z,33.60
2022-08-16T12:51:24.560Z,33.70
2022-08-16T12:54:20.747Z,33.80
2022-08-16T12:57:14.153Z,33.90
2022-08-16T13:00:02.267Z,33.40
2022-08-16T13:02:50.200Z,33.10
2022-08-16T13:05:47.759Z,33.50
2022-08-16T13:08:45.356Z,33.40
2022-08-16T13:11:41.550Z,34.20
2022-08-16T13:14:44.352Z,34.10
2022-08-16T13:17:31.572Z,34.20
2022-08-16T13:20:23.314Z,34.00
2022-08-16T13:23:11.932Z,34.10
2022-08-16T13:26:05.055Z,34.30
2022-08-16T13:28:53.325Z,34.50
2022-08-16T13:31:40.324Z,34.60
2022-08-16T13:34:28.007Z,34.50
2022-08-16T13:37:15.429Z,33.80
2022-08-16T13:40:06.837Z,33.80
2022-08-16T13:42:56.911Z,33.70
2022-08-16T13:45:44.813Z,33.90
2022-08-16T13:48:42.993Z,34.30
2022-08-16T13:51:32.337Z,34.60
2022-08-16T13:54:19.799Z,33.60
2022-08-16T13:57:07.251Z,33.00
2022-08-16T13:59:59.033Z,33.10
2022-08-16T14:02:47.756Z,32.80
2022-08-16T14:05:35.985Z,32.70
2022-08-16T14:08:27.159Z,33.00
2022-08-16T14:11:16.021Z,33.00
2022-08-16T14:14:05.396Z,33.00
2022-08-16T14:16:53.446Z,33.10
2022-08-16T14:19:44.896Z,33.20
2022-08-16T14:22:35.991Z,32.70
2022-08-16T14:25:27.158Z,32.50
2022-08-16T14:28:16.400Z,32.70
2022-08-16T14:31:03.863Z,32.50
2022-08-16T14:33:51.161Z,32.90
2022-08-16T14:36:40.781Z,33.20
2022-08-16T14:39:29.379Z,33.20
2022-08-16T14:42:26.447Z,33.00
2022-08-16T14:45:17.641Z,33.10
2022-08-16T14:48:05.063Z,33.40
2022-08-16T14:50:52.252Z,33.50
2022-08-16T14:53:45.491Z,33.40
2022-08-16T14:56:38.619Z,33.10
2022-08-16T14:59:30.535Z,32.80
2022-08-16T15:02:33.989Z,32.80
2022-08-16T15:05:23.368Z,32.70
2022-08-16T15:08:11.212Z,32.50
2022-08-16T15:10:58.385Z,32.60
2022-08-16T15:13:45.588Z,32.50
2022-08-16T15:16:34.673Z,32.40
2022-08-16T15:19:23.153Z,32.70
2022-08-16T15:22:13.843Z,32.70
2022-08-16T15:25:05.115Z,32.80
2022-08-16T15:27:55.051Z,32.40
2022-08-16T15:30:57.609Z,32.30
2022-08-16T15:33:56.656Z,32.50
2022-08-16T15:36:45.526Z,32.30
2022-08-16T15:39:39.415Z,32.00
2022-08-16T15:42:28.691Z,32.00
2022-08-16T15:45:36.569Z,31.80
2022-08-16T15:48:28.620Z,31.80
2022-08-16T15:51:16.721Z,31.60
2022-08-16T15:54:30.142Z,31.90
2022-08-16T15:57:12.419Z,32.10
2022-08-16T16:00:04.638Z,32.00
2022-08-16T16:03:15.105Z,31.60
2022-08-16T16:06:04.069Z,31.30
2022-08-16T16:08:51.570Z,31.30
2022-08-16T16:11:39.463Z,31.50
2022-08-16T16:14:28.667Z,31.20
2022-08-16T16:17:18.186Z,31.00
2022-08-16T16:20:08.202Z,31.00
2022-08-16T16:23:10.045Z,30.80
2022-08-16T16:25:58.633Z,30.60
2022-08-16T16:29:05.447Z,30.50
2022-08-16T16:31:59.503Z,30.60
2022-08-16T16:34:47.419Z,30.70
2022-08-16T16:37:34.872Z,30.70
2022-08-16T16:40:32.573Z,30.60
2022-08-16T16:43:20.548Z,30.50
2022-08-16T16:46:40.616Z,30.50
2022-08-16T16:49:23.144Z,30.40
2022-08-16T16:52:14.131Z,30.50
2022-08-16T16:55:21.896Z,30.20
2022-08-16T16:58:36.456Z,30.20
2022-08-16T17:01:41.225Z,30.10
2022-08-16T17:04:37.124Z,29.90
2022-08-16T17:07:24.618Z,30.00
2022-08-16T17:10:13.158Z,29.80
2022-08-16T17:13:23.434Z,29.70
2022-08-16T17:16:18.393Z,29.50
2022-08-16T17:19:16.578Z,29.60
2022-08-16T17:22:19.741Z,29.60
2022-08-16T17:25:09.221Z,29.50
2022-08-16T17:27:56.712Z,29.30
2022-08-16T17:30:46.364Z,29.20
2022-08-16T17:33:36.676Z,29.20
2022-08-16T17:36:36.561Z,29.10
2022-08-16T17:39:24.209Z,29.10
2022-08-16T17:42:16.853Z,29.00
2022-08-16T17:45:04.690Z,29.00
2022-08-16T17:47:52.733Z,28.90
2022-08-16T17:50:41.638Z,29.00
2022-08-16T17:53:30.122Z,28.90
2022-08-16T17:56:17.478Z,28.80
2022-08-16T17:59:04.768Z,28.80
2022-08-16T18:01:52.364Z,28.60
2022-08-16T18:04:49.635Z,28.60
2022-08-16T18:07:37.556Z,28.50
2022-08-16T18:10:33.065Z,28.40
2022-08-16T18:13:23.541Z,28.40
2022-08-16T18:16:12.809Z,28.30
2022-08-16T18:19:00.695Z,28.10
2022-08-16T18:22:06.985Z,28.20
2022-08-16T18:24:54.152Z,28.10
2022-08-16T18:27:41.611Z,28.00
2022-08-16T18:30:29.178Z,28.00
2022-08-16T18:33:17.584Z,27.80
2022-08-16T18:36:04.974Z,27.80
2022-08-16T18:39:07.543Z,27.70
2022-08-16T18:41:55.055Z,27.60
2022-08-16T18:44:43.967Z,27.40
2022-08-16T18:47:31.157Z,27.30
2022-08-16T18:50:18.930Z,27.40
2022-08-16T18:53:08.280Z,27.10
2022-08-16T18:55:59.174Z,27.00
2022-08-16T18:58:46.399Z,27.10
2022-08-16T19:01:33.524Z,26.90
2022-08-16T19:04:55.991Z,26.30
2022-08-16T19:07:31.302Z,26.80
2022-08-16T19:10:19.801Z,26.50
2022-08-16T19:13:13.149Z,26.70
2022-08-16T19:16:01.824Z,26.60
2022-08-16T19:18:49.988Z,26.40
2022-08-16T19:21:38.512Z,26.20
2022-08-16T19:24:29.429Z,26.20
2022-08-16T19:27:16.555Z,26.10
2022-08-16T19:30:08.096Z,26.00
2022-08-16T19:32:55.340Z,25.90
2022-08-16T19:35:42.535Z,25.90
2022-08-16T19:38:30.060Z,26.10
2022-08-16T19:41:17.675Z,25.60
2022-08-16T19:44:05.759Z,25.80
2022-08-16T19:46:53.061Z,25.90
2022-08-16T19:49:40.696Z,25.40
2022-08-16T19:52:30.014Z,25.50
2022-08-16T19:55:22.319Z,26.10
2022-08-16T19:58:13.759Z,26.40
2022-08-16T20:01:00.916Z,25.20
2022-08-16T20:03:48.228Z,25.00
2022-08-16T20:06:38.549Z,25.00
2022-08-16T20:09:25.807Z,25.20
2022-08-16T20:12:21.674Z,25.00
2022-08-16T20:15:13.014Z,24.80
2022-08-16T20:18:00.277Z,24.80
2022-08-16T20:20:47.973Z,25.20
2022-08-16T20:23:34.992Z,24.60
2022-08-16T20:26:24.615Z,25.00
2022-08-16T20:29:11.525Z,24.30
2022-08-16T20:31:58.689Z,24.90
2022-08-16T20:34:47.409Z,24.50
2022-08-16T20:37:37.295Z,24.60
2022-08-16T20:40:29.621Z,24.40
2022-08-16T20:43:22.362Z,24.00
2022-08-16T20:46:09.553Z,24.00
2022-08-16T20:48:56.990Z,24.00
2022-08-16T20:51:49.492Z,24.90
2022-08-16T20:54:39.822Z,23.60
2022-08-16T20:57:26.780Z,23.60
2022-08-16T21:00:14.619Z,24.00
2022-08-16T21:03:11.220Z,23.80
2022-08-16T21:06:00.150Z,23.60
2022-08-16T21:08:52.322Z,23.80
2022-08-16T21:11:40.655Z,23.80
2022-08-16T21:14:29.876Z,23.80
2022-08-16T21:17:17.624Z,23.60
2022-08-16T21:20:06.198Z,23.60
2022-08-16T22:05:35.422Z,23.70
2022-08-16T22:08:22.799Z,22.60
2022-08-16T22:11:09.893Z,22.60
2022-08-16T22:13:59.330Z,22.50
2022-08-16T22:25:21.774Z,22.20
2022-08-16T22:36:33.418Z,22.20
2022-08-16T22:39:20.408Z,22.10
2022-08-16T22:42:09.666Z,22.10
2022-08-16T22:44:58.301Z,22.20
2022-08-16T22:47:45.300Z,22.20
2022-08-16T22:53:21.120Z,21.60
2022-08-16T23:21:27.974Z,21.90
2022-08-16T23:29:52.883Z,21.20
2022-08-16T23:32:45.361Z,21.20
2022-08-16T23:35:44.833Z,21.50
2022-08-16T23:38:38.996Z,21.00
2022-08-16T23:44:55.192Z,21.20
2022-08-16T23:47:21.657Z,21.20
2022-08-16T23:50:09.561Z,21.00
2022-08-16T23:55:56.193Z,20.80
2022-08-16T23:58:46.608Z,20.60
